sensor_id;sensor_type;location;lat;lon;timestamp;P1;durP1;ratioP1;P2;durP2;ratioP2
19848;SDS011;10085;51.120;6.956;2023-10-31T00:01:08;10.85;;;6.15;;
19848;SDS011;10085;51.120;6.956;2023-10-31T00:06:11;10.48;;;5.72;;
19848;SDS011;10085;51.120;6.956;2023-10-31T00:11:15;6.43;;;4.32;;
19848;SDS011;10085;51.120;6.956;2023-10-31T00:16:18;5.80;;;3.88;;
19848;SDS011;10085;51.120;6.956;2023-10-31T00:21:21;2.55;;;2.17;;
19848;SDS011;10085;51.120;6.956;2023-10-31T00:26:27;2.80;;;2.13;;
19848;SDS011;10085;51.120;6.956;2023-10-31T00:31:30;5.85;;;3.25;;
19848;SDS011;10085;51.120;6.956;2023-10-31T00:36:36;11.18;;;5.57;;
19848;SDS011;10085;51.120;6.956;2023-10-31T00:41:43;12.30;;;6.80;;
19848;SDS011;10085;51.120;6.956;2023-10-31T00:46:46;15.10;;;7.93;;
19848;SDS011;10085;51.120;6.956;2023-10-31T00:51:49;15.50;;;7.57;;
19848;SDS011;10085;51.120;6.956;2023-10-31T00:56:54;14.35;;;6.90;;
19848;SDS011;10085;51.120;6.956;2023-10-31T01:01:56;10.05;;;4.47;;
19848;SDS011;10085;51.120;6.956;2023-10-31T01:06:59;8.00;;;3.33;;
19848;SDS011;10085;51.120;6.956;2023-10-31T01:12:04;7.07;;;2.10;;
19848;SDS011;10085;51.120;6.956;2023-10-31T01:17:07;6.03;;;2.33;;
19848;SDS011;10085;51.120;6.956;2023-10-31T01:22:10;2.75;;;1.85;;
19848;SDS011;10085;51.120;6.956;2023-10-31T01:27:15;5.63;;;3.30;;
19848;SDS011;10085;51.120;6.956;2023-10-31T01:32:17;8.68;;;3.67;;
19848;SDS011;10085;51.120;6.956;2023-10-31T01:37:23;5.43;;;2.70;;
19848;SDS011;10085;51.120;6.956;2023-10-31T01:42:27;9.35;;;4.38;;
19848;SDS011;10085;51.120;6.956;2023-10-31T01:47:30;10.15;;;5.55;;
19848;SDS011;10085;51.120;6.956;2023-10-31T01:52:33;10.05;;;4.95;;
19848;SDS011;10085;51.120;6.956;2023-10-31T01:57:38;10.68;;;5.45;;
19848;SDS011;10085;51.120;6.956;2023-10-31T02:02:41;9.93;;;4.55;;
19848;SDS011;10085;51.120;6.956;2023-10-31T02:07:45;12.57;;;5.85;;
19848;SDS011;10085;51.120;6.956;2023-10-31T02:12:49;12.32;;;5.22;;
19848;SDS011;10085;51.120;6.956;2023-10-31T02:17:52;10.68;;;5.30;;
19848;SDS011;10085;51.120;6.956;2023-10-31T02:22:56;8.90;;;4.22;;
19848;SDS011;10085;51.120;6.956;2023-10-31T02:27:59;14.30;;;5.35;;
19848;SDS011;10085;51.120;6.956;2023-10-31T02:33:02;9.02;;;4.95;;
19848;SDS011;10085;51.120;6.956;2023-10-31T02:38:06;13.07;;;5.53;;
19848;SDS011;10085;51.120;6.956;2023-10-31T02:43:09;12.05;;;5.80;;
19848;SDS011;10085;51.120;6.956;2023-10-31T02:48:12;13.38;;;6.00;;
19848;SDS011;10085;51.120;6.956;2023-10-31T02:53:17;12.77;;;5.82;;
19848;SDS011;10085;51.120;6.956;2023-10-31T02:58:20;17.13;;;6.30;;
19848;SDS011;10085;51.120;6.956;2023-10-31T03:03:23;10.35;;;4.82;;
19848;SDS011;10085;51.120;6.956;2023-10-31T03:08:27;13.82;;;5.97;;
19848;SDS011;10085;51.120;6.956;2023-10-31T03:13:30;12.82;;;6.00;;
19848;SDS011;10085;51.120;6.956;2023-10-31T03:18:33;13.98;;;6.00;;
19848;SDS011;10085;51.120;6.956;2023-10-31T03:23:37;13.38;;;5.65;;
19848;SDS011;10085;51.120;6.956;2023-10-31T03:28:40;12.82;;;5.53;;
19848;SDS011;10085;51.120;6.956;2023-10-31T03:33:44;15.52;;;6.07;;
19848;SDS011;10085;51.120;6.956;2023-10-31T03:38:49;13.98;;;5.75;;
19848;SDS011;10085;51.120;6.956;2023-10-31T03:43:52;11.15;;;5.10;;
19848;SDS011;10085;51.120;6.956;2023-10-31T03:48:55;10.52;;;5.05;;
19848;SDS011;10085;51.120;6.956;2023-10-31T03:53:59;12.25;;;4.55;;
19848;SDS011;10085;51.120;6.956;2023-10-31T03:59:02;13.25;;;4.50;;
19848;SDS011;10085;51.120;6.956;2023-10-31T04:04:05;11.60;;;4.72;;
19848;SDS011;10085;51.120;6.956;2023-10-31T04:09:09;11.40;;;4.35;;
19848;SDS011;10085;51.120;6.956;2023-10-31T04:14:12;11.10;;;3.90;;
19848;SDS011;10085;51.120;6.956;2023-10-31T04:19:15;6.05;;;3.60;;
19848;SDS011;10085;51.120;6.956;2023-10-31T04:24:19;10.05;;;3.53;;
19848;SDS011;10085;51.120;6.956;2023-10-31T04:29:22;8.55;;;3.70;;
19848;SDS011;10085;51.120;6.956;2023-10-31T04:34:25;9.88;;;4.10;;
19848;SDS011;10085;51.120;6.956;2023-10-31T04:39:29;8.90;;;4.10;;
19848;SDS011;10085;51.120;6.956;2023-10-31T04:44:32;8.77;;;4.38;;
19848;SDS011;10085;51.120;6.956;2023-10-31T04:49:35;11.32;;;5.25;;
19848;SDS011;10085;51.120;6.956;2023-10-31T04:54:40;12.00;;;5.03;;
19848;SDS011;10085;51.120;6.956;2023-10-31T04:59:43;10.82;;;5.22;;
19848;SDS011;10085;51.120;6.956;2023-10-31T05:04:46;12.27;;;5.38;;
19848;SDS011;10085;51.120;6.956;2023-10-31T05:09:53;11.38;;;5.85;;
19848;SDS011;10085;51.120;6.956;2023-10-31T05:14:56;10.82;;;5.60;;
19848;SDS011;10085;51.120;6.956;2023-10-31T05:19:59;9.68;;;5.28;;
19848;SDS011;10085;51.120;6.956;2023-10-31T05:25:04;9.50;;;5.30;;
19848;SDS011;10085;51.120;6.956;2023-10-31T05:30:07;10.95;;;5.88;;
19848;SDS011;10085;51.120;6.956;2023-10-31T05:35:11;14.23;;;6.60;;
19848;SDS011;10085;51.120;6.956;2023-10-31T05:40:15;10.55;;;5.50;;
19848;SDS011;10085;51.120;6.956;2023-10-31T05:45:18;10.88;;;5.78;;
19848;SDS011;10085;51.120;6.956;2023-10-31T05:50:21;10.77;;;5.85;;
19848;SDS011;10085;51.120;6.956;2023-10-31T05:55:25;15.35;;;6.18;;
19848;SDS011;10085;51.120;6.956;2023-10-31T06:00:28;12.07;;;5.95;;
19848;SDS011;10085;51.120;6.956;2023-10-31T06:05:31;14.13;;;6.45;;
19848;SDS011;10085;51.120;6.956;2023-10-31T06:10:35;11.05;;;6.20;;
19848;SDS011;10085;51.120;6.956;2023-10-31T06:15:38;12.20;;;6.47;;
19848;SDS011;10085;51.120;6.956;2023-10-31T06:20:41;13.30;;;6.65;;
19848;SDS011;10085;51.120;6.956;2023-10-31T06:25:45;9.27;;;5.05;;
19848;SDS011;10085;51.120;6.956;2023-10-31T06:30:48;11.50;;;5.70;;
19848;SDS011;10085;51.120;6.956;2023-10-31T06:35:50;21.85;;;7.90;;
19848;SDS011;10085;51.120;6.956;2023-10-31T06:40:56;21.25;;;8.50;;
19848;SDS011;10085;51.120;6.956;2023-10-31T06:45:59;20.23;;;8.80;;
19848;SDS011;10085;51.120;6.956;2023-10-31T06:51:04;24.13;;;9.73;;
19848;SDS011;10085;51.120;6.956;2023-10-31T06:56:08;27.65;;;9.85;;
19848;SDS011;10085;51.120;6.956;2023-10-31T07:01:11;21.80;;;9.80;;
19848;SDS011;10085;51.120;6.956;2023-10-31T07:06:15;23.13;;;9.75;;
19848;SDS011;10085;51.120;6.956;2023-10-31T07:11:19;22.42;;;9.50;;
19848;SDS011;10085;51.120;6.956;2023-10-31T07:16:22;34.40;;;14.52;;
19848;SDS011;10085;51.120;6.956;2023-10-31T07:21:25;22.13;;;8.48;;
19848;SDS011;10085;51.120;6.956;2023-10-31T07:26:29;21.40;;;9.18;;
19848;SDS011;10085;51.120;6.956;2023-10-31T07:31:32;25.38;;;9.23;;
19848;SDS011;10085;51.120;6.956;2023-10-31T07:36:39;25.30;;;10.23;;
19848;SDS011;10085;51.120;6.956;2023-10-31T07:41:44;27.65;;;11.02;;
19848;SDS011;10085;51.120;6.956;2023-10-31T07:46:48;22.73;;;7.95;;
19848;SDS011;10085;51.120;6.956;2023-10-31T07:51:50;27.88;;;10.80;;
19848;SDS011;10085;51.120;6.956;2023-10-31T07:56:55;28.67;;;11.63;;
19848;SDS011;10085;51.120;6.956;2023-10-31T08:01:58;20.67;;;8.38;;
19848;SDS011;10085;51.120;6.956;2023-10-31T08:07:00;27.95;;;10.63;;
19848;SDS011;10085;51.120;6.956;2023-10-31T08:12:05;27.42;;;8.95;;
19848;SDS011;10085;51.120;6.956;2023-10-31T08:17:08;23.70;;;9.18;;
19848;SDS011;10085;51.120;6.956;2023-10-31T08:22:11;21.25;;;8.20;;
19848;SDS011;10085;51.120;6.956;2023-10-31T08:27:15;25.98;;;10.40;;
19848;SDS011;10085;51.120;6.956;2023-10-31T08:32:18;22.55;;;8.85;;
19848;SDS011;10085;51.120;6.956;2023-10-31T08:37:23;20.45;;;8.80;;
19848;SDS011;10085;51.120;6.956;2023-10-31T08:42:27;14.70;;;6.57;;
19848;SDS011;10085;51.120;6.956;2023-10-31T08:47:30;20.13;;;8.60;;
19848;SDS011;10085;51.120;6.956;2023-10-31T08:52:33;17.45;;;7.97;;
19848;SDS011;10085;51.120;6.956;2023-10-31T08:57:37;16.48;;;7.80;;
19848;SDS011;10085;51.120;6.956;2023-10-31T09:02:40;18.42;;;6.80;;
19848;SDS011;10085;51.120;6.956;2023-10-31T09:07:44;14.40;;;7.90;;
19848;SDS011;10085;51.120;6.956;2023-10-31T09:12:49;12.70;;;6.35;;
19848;SDS011;10085;51.120;6.956;2023-10-31T09:17:51;13.07;;;6.78;;
19848;SDS011;10085;51.120;6.956;2023-10-31T09:22:55;11.82;;;5.70;;
19848;SDS011;10085;51.120;6.956;2023-10-31T09:27:59;11.25;;;6.45;;
19848;SDS011;10085;51.120;6.956;2023-10-31T09:33:02;12.30;;;6.28;;
19848;SDS011;10085;51.120;6.956;2023-10-31T09:38:05;14.55;;;5.40;;
19848;SDS011;10085;51.120;6.956;2023-10-31T09:43:10;12.50;;;5.78;;
19848;SDS011;10085;51.120;6.956;2023-10-31T09:48:13;8.65;;;5.03;;
19848;SDS011;10085;51.120;6.956;2023-10-31T09:53:16;9.77;;;4.68;;
19848;SDS011;10085;51.120;6.956;2023-10-31T09:58:20;10.07;;;5.30;;
19848;SDS011;10085;51.120;6.956;2023-10-31T10:03:23;10.95;;;5.55;;
19848;SDS011;10085;51.120;6.956;2023-10-31T10:08:26;9.32;;;4.97;;
19848;SDS011;10085;51.120;6.956;2023-10-31T10:13:30;12.70;;;4.68;;
19848;SDS011;10085;51.120;6.956;2023-10-31T10:18:34;11.32;;;5.03;;
19848;SDS011;10085;51.120;6.956;2023-10-31T10:23:40;10.02;;;5.00;;
19848;SDS011;10085;51.120;6.956;2023-10-31T10:28:47;9.07;;;4.80;;
19848;SDS011;10085;51.120;6.956;2023-10-31T10:33:50;27.10;;;12.55;;
19848;SDS011;10085;51.120;6.956;2023-10-31T10:38:53;10.88;;;5.10;;
19848;SDS011;10085;51.120;6.956;2023-10-31T10:44:03;11.95;;;4.85;;
19848;SDS011;10085;51.120;6.956;2023-10-31T10:49:07;8.93;;;4.25;;
19848;SDS011;10085;51.120;6.956;2023-10-31T10:54:13;8.30;;;4.13;;
19848;SDS011;10085;51.120;6.956;2023-10-31T10:59:20;7.00;;;4.03;;
19848;SDS011;10085;51.120;6.956;2023-10-31T11:04:23;6.57;;;3.22;;
19848;SDS011;10085;51.120;6.956;2023-10-31T11:09:27;6.57;;;3.60;;
19848;SDS011;10085;51.120;6.956;2023-10-31T11:14:32;7.95;;;3.80;;
19848;SDS011;10085;51.120;6.956;2023-10-31T11:19:35;5.80;;;3.72;;
19848;SDS011;10085;51.120;6.956;2023-10-31T11:24:38;4.97;;;3.55;;
19848;SDS011;10085;51.120;6.956;2023-10-31T11:29:43;9.05;;;3.50;;
19848;SDS011;10085;51.120;6.956;2023-10-31T11:34:46;5.60;;;3.42;;
19848;SDS011;10085;51.120;6.956;2023-10-31T11:45:28;7.53;;;3.35;;
19848;SDS011;10085;51.120;6.956;2023-10-31T11:50:31;5.50;;;3.40;;
19848;SDS011;10085;51.120;6.956;2023-10-31T11:55:35;6.35;;;3.42;;
19848;SDS011;10085;51.120;6.956;2023-10-31T12:00:40;6.28;;;3.13;;
19848;SDS011;10085;51.120;6.956;2023-10-31T12:05:53;8.45;;;3.10;;
19848;SDS011;10085;51.120;6.956;2023-10-31T12:11:06;4.82;;;2.90;;
19848;SDS011;10085;51.120;6.956;2023-10-31T12:16:11;3.83;;;2.40;;
19848;SDS011;10085;51.120;6.956;2023-10-31T12:21:14;4.03;;;2.40;;
19848;SDS011;10085;51.120;6.956;2023-10-31T12:26:20;3.40;;;2.50;;
19848;SDS011;10085;51.120;6.956;2023-10-31T12:31:25;3.90;;;2.53;;
19848;SDS011;10085;51.120;6.956;2023-10-31T12:36:28;7.53;;;2.55;;
19848;SDS011;10085;51.120;6.956;2023-10-31T12:41:31;2.97;;;2.20;;
19848;SDS011;10085;51.120;6.956;2023-10-31T12:46:38;4.35;;;2.10;;
19848;SDS011;10085;51.120;6.956;2023-10-31T12:51:54;4.10;;;1.95;;
19848;SDS011;10085;51.120;6.956;2023-10-31T12:57:01;5.35;;;2.15;;
19848;SDS011;10085;51.120;6.956;2023-10-31T13:02:07;5.25;;;1.90;;
19848;SDS011;10085;51.120;6.956;2023-10-31T13:07:12;3.22;;;1.90;;
19848;SDS011;10085;51.120;6.956;2023-10-31T13:12:14;6.07;;;2.78;;
19848;SDS011;10085;51.120;6.956;2023-10-31T13:17:19;5.63;;;2.35;;
19848;SDS011;10085;51.120;6.956;2023-10-31T13:22:22;2.53;;;1.73;;
19848;SDS011;10085;51.120;6.956;2023-10-31T13:27:24;3.65;;;2.08;;
19848;SDS011;10085;51.120;6.956;2023-10-31T13:32:28;3.50;;;1.80;;
19848;SDS011;10085;51.120;6.956;2023-10-31T13:37:31;6.10;;;1.73;;
19848;SDS011;10085;51.120;6.956;2023-10-31T13:42:36;3.17;;;1.63;;
19848;SDS011;10085;51.120;6.956;2023-10-31T13:47:40;6.57;;;1.90;;
19848;SDS011;10085;51.120;6.956;2023-10-31T13:52:43;6.40;;;1.83;;
19848;SDS011;10085;51.120;6.956;2023-10-31T13:57:46;5.07;;;1.70;;
19848;SDS011;10085;51.120;6.956;2023-10-31T14:02:50;3.38;;;1.75;;
19848;SDS011;10085;51.120;6.956;2023-10-31T14:07:53;3.10;;;1.88;;
19848;SDS011;10085;51.120;6.956;2023-10-31T14:12:56;3.42;;;1.80;;
19848;SDS011;10085;51.120;6.956;2023-10-31T14:18:00;6.47;;;1.88;;
19848;SDS011;10085;51.120;6.956;2023-10-31T14:23:04;6.35;;;1.95;;
19848;SDS011;10085;51.120;6.956;2023-10-31T14:28:07;5.10;;;2.17;;
19848;SDS011;10085;51.120;6.956;2023-10-31T14:33:11;4.13;;;2.10;;
19848;SDS011;10085;51.120;6.956;2023-10-31T14:38:15;5.38;;;1.75;;
19848;SDS011;10085;51.120;6.956;2023-10-31T14:43:18;3.75;;;1.75;;
19848;SDS011;10085;51.120;6.956;2023-10-31T14:48:22;5.60;;;2.10;;
19848;SDS011;10085;51.120;6.956;2023-10-31T14:53:25;4.85;;;2.20;;
19848;SDS011;10085;51.120;6.956;2023-10-31T14:58:28;3.78;;;2.10;;
19848;SDS011;10085;51.120;6.956;2023-10-31T15:03:32;3.85;;;1.85;;
19848;SDS011;10085;51.120;6.956;2023-10-31T15:08:35;4.55;;;1.63;;
19848;SDS011;10085;51.120;6.956;2023-10-31T15:13:38;5.15;;;1.77;;
19848;SDS011;10085;51.120;6.956;2023-10-31T15:18:42;4.45;;;1.85;;
19848;SDS011;10085;51.120;6.956;2023-10-31T15:23:46;5.60;;;2.03;;
19848;SDS011;10085;51.120;6.956;2023-10-31T15:28:51;5.45;;;2.30;;
19848;SDS011;10085;51.120;6.956;2023-10-31T15:33:55;4.70;;;1.80;;
19848;SDS011;10085;51.120;6.956;2023-10-31T15:38:58;8.77;;;1.95;;
19848;SDS011;10085;51.120;6.956;2023-10-31T15:44:01;6.97;;;2.42;;
19848;SDS011;10085;51.120;6.956;2023-10-31T15:49:06;11.98;;;2.67;;
19848;SDS011;10085;51.120;6.956;2023-10-31T15:54:09;4.90;;;1.90;;
19848;SDS011;10085;51.120;6.956;2023-10-31T15:59:12;5.32;;;1.83;;
19848;SDS011;10085;51.120;6.956;2023-10-31T16:04:16;6.30;;;2.30;;
19848;SDS011;10085;51.120;6.956;2023-10-31T16:09:19;9.10;;;2.22;;
19848;SDS011;10085;51.120;6.956;2023-10-31T16:14:23;4.88;;;2.30;;
19848;SDS011;10085;51.120;6.956;2023-10-31T16:19:27;3.30;;;1.95;;
19848;SDS011;10085;51.120;6.956;2023-10-31T16:24:30;4.68;;;2.30;;
19848;SDS011;10085;51.120;6.956;2023-10-31T16:29:33;4.35;;;1.83;;
19848;SDS011;10085;51.120;6.956;2023-10-31T16:34:37;6.00;;;2.25;;
19848;SDS011;10085;51.120;6.956;2023-10-31T16:39:40;5.50;;;2.05;;
19848;SDS011;10085;51.120;6.956;2023-10-31T16:44:44;3.08;;;1.73;;
19848;SDS011;10085;51.120;6.956;2023-10-31T16:49:48;4.40;;;2.08;;
19848;SDS011;10085;51.120;6.956;2023-10-31T16:54:51;5.10;;;2.50;;
19848;SDS011;10085;51.120;6.956;2023-10-31T16:59:54;5.20;;;2.83;;
19848;SDS011;10085;51.120;6.956;2023-10-31T17:04:58;8.38;;;2.70;;
19848;SDS011;10085;51.120;6.956;2023-10-31T17:10:02;7.88;;;3.38;;
19848;SDS011;10085;51.120;6.956;2023-10-31T17:15:07;9.15;;;3.72;;
19848;SDS011;10085;51.120;6.956;2023-10-31T17:20:12;6.88;;;3.83;;
19848;SDS011;10085;51.120;6.956;2023-10-31T17:25:15;12.20;;;4.68;;
19848;SDS011;10085;51.120;6.956;2023-10-31T17:30:18;9.65;;;4.47;;
19848;SDS011;10085;51.120;6.956;2023-10-31T17:35:23;11.88;;;4.97;;
19848;SDS011;10085;51.120;6.956;2023-10-31T17:40:26;13.85;;;4.53;;
19848;SDS011;10085;51.120;6.956;2023-10-31T17:45:29;6.93;;;4.30;;
19848;SDS011;10085;51.120;6.956;2023-10-31T17:50:33;9.40;;;4.20;;
19848;SDS011;10085;51.120;6.956;2023-10-31T17:55:37;8.43;;;4.35;;
19848;SDS011;10085;51.120;6.956;2023-10-31T18:00:40;8.00;;;3.92;;
19848;SDS011;10085;51.120;6.956;2023-10-31T18:05:45;9.95;;;4.35;;
19848;SDS011;10085;51.120;6.956;2023-10-31T18:10:48;6.93;;;3.67;;
19848;SDS011;10085;51.120;6.956;2023-10-31T18:15:51;9.27;;;4.00;;
19848;SDS011;10085;51.120;6.956;2023-10-31T18:20:55;10.10;;;4.65;;
19848;SDS011;10085;51.120;6.956;2023-10-31T18:26:02;10.55;;;5.05;;
19848;SDS011;10085;51.120;6.956;2023-10-31T18:31:06;10.85;;;4.82;;
19848;SDS011;10085;51.120;6.956;2023-10-31T18:36:10;11.13;;;5.57;;
19848;SDS011;10085;51.120;6.956;2023-10-31T18:41:16;9.20;;;5.05;;
19848;SDS011;10085;51.120;6.956;2023-10-31T18:46:19;9.05;;;4.45;;
19848;SDS011;10085;51.120;6.956;2023-10-31T18:51:23;11.82;;;5.30;;
19848;SDS011;10085;51.120;6.956;2023-10-31T18:56:27;16.75;;;5.50;;
19848;SDS011;10085;51.120;6.956;2023-10-31T19:01:30;10.30;;;5.70;;
19848;SDS011;10085;51.120;6.956;2023-10-31T19:06:35;11.43;;;5.70;;
19848;SDS011;10085;51.120;6.956;2023-10-31T19:11:38;12.75;;;5.05;;
19848;SDS011;10085;51.120;6.956;2023-10-31T19:16:41;11.32;;;5.22;;
19848;SDS011;10085;51.120;6.956;2023-10-31T19:21:45;14.38;;;5.00;;
19848;SDS011;10085;51.120;6.956;2023-10-31T19:26:48;8.50;;;4.63;;
19848;SDS011;10085;51.120;6.956;2023-10-31T19:31:52;13.45;;;5.20;;
19848;SDS011;10085;51.120;6.956;2023-10-31T19:36:57;17.52;;;7.13;;
